createdAt,value
2023-01-09T00:02:41.808Z,20.73
2023-01-09T00:07:41.893Z,20.69
2023-01-09T00:12:41.218Z,20.47
2023-01-09T00:17:40.594Z,20.10
2023-01-09T00:22:39.709Z,19.83
2023-01-09T00:27:38.961Z,20.05
2023-01-09T00:32:38.257Z,19.94
2023-01-09T00:37:36.603Z,19.63
2023-01-09T00:42:36.713Z,19.61
2023-01-09T00:47:36.060Z,19.50
2023-01-09T00:52:37.230Z,19.76
2023-01-09T00:57:33.365Z,19.77
2023-01-09T01:02:32.547Z,19.54
2023-01-09T01:07:31.785Z,19.41
2023-01-09T01:12:31.067Z,19.50
2023-01-09T01:17:30.361Z,19.29
2023-01-09T01:22:29.655Z,19.33
2023-01-09T01:27:28.976Z,18.87
2023-01-09T01:32:28.250Z,18.29
2023-01-09T01:37:26.508Z,18.07
2023-01-09T01:42:28.792Z,18.20
2023-01-09T01:47:26.041Z,18.48
2023-01-09T01:52:25.341Z,18.66
2023-01-09T01:57:25.635Z,19.10
2023-01-09T02:02:26.023Z,19.25
2023-01-09T02:07:24.160Z,19.31
2023-01-09T02:12:22.282Z,19.22
2023-01-09T02:17:21.404Z,19.10
2023-01-09T02:22:20.721Z,19.16
2023-01-09T02:27:20.027Z,18.67
2023-01-09T02:32:19.358Z,18.67
2023-01-09T02:37:19.668Z,18.65
2023-01-09T02:42:17.989Z,18.69
2023-01-09T02:47:18.305Z,18.67
2023-01-09T02:52:17.580Z,18.58
2023-01-09T02:57:16.863Z,18.42
2023-01-09T03:02:16.158Z,18.26
2023-01-09T03:07:15.466Z,18.39
2023-01-09T03:12:13.760Z,18.78
2023-01-09T03:17:12.052Z,19.62
2023-01-09T03:22:13.355Z,20.01
2023-01-09T03:27:13.629Z,20.16
2023-01-09T03:32:10.933Z,20.23
2023-01-09T03:37:10.261Z,19.73
2023-01-09T03:42:09.571Z,19.63
2023-01-09T03:47:09.913Z,19.61
2023-01-09T03:52:10.254Z,19.62
2023-01-09T03:57:10.388Z,19.31
2023-01-09T04:02:06.624Z,19.14
2023-01-09T04:07:07.810Z,18.62
2023-01-09T04:12:07.161Z,18.90
2023-01-09T04:17:04.281Z,18.62
2023-01-09T04:22:04.608Z,18.32
2023-01-09T04:27:02.879Z,18.26
2023-01-09T04:32:04.051Z,18.37
2023-01-09T04:37:03.219Z,19.32
2023-01-09T04:42:00.388Z,20.03
2023-01-09T04:46:59.587Z,20.87
2023-01-09T04:52:00.793Z,21.22
2023-01-09T04:56:57.962Z,21.07
2023-01-09T05:01:57.259Z,20.92
2023-01-09T05:06:56.264Z,20.73
2023-01-09T05:11:55.458Z,20.54
2023-01-09T05:16:54.628Z,20.18
2023-01-09T05:21:53.807Z,19.92
2023-01-09T05:26:54.964Z,19.58
2023-01-09T05:31:52.141Z,19.23
2023-01-09T05:36:51.367Z,19.25
2023-01-09T05:41:50.543Z,19.36
2023-01-09T05:46:49.679Z,19.00
2023-01-09T05:51:50.894Z,18.65
2023-01-09T05:56:48.050Z,18.37
2023-01-09T06:01:46.278Z,17.93
2023-01-09T06:06:47.492Z,17.51
2023-01-09T06:11:45.676Z,17.77
2023-01-09T06:16:45.854Z,17.72
2023-01-09T06:21:45.011Z,17.68
2023-01-09T06:26:43.164Z,17.93
2023-01-09T06:31:42.339Z,19.36
2023-01-09T06:36:41.529Z,19.14
2023-01-09T06:41:40.683Z,19.08
2023-01-09T06:46:39.865Z,18.47
2023-01-09T06:51:40.037Z,18.62
2023-01-09T06:56:38.211Z,18.67
2023-01-09T07:01:37.556Z,18.75
2023-01-09T07:06:36.563Z,18.72
2023-01-09T07:11:35.736Z,18.62
2023-01-09T07:16:34.920Z,18.25
2023-01-09T07:21:34.082Z,18.18
2023-01-09T07:26:33.323Z,18.05
2023-01-09T07:31:32.601Z,17.79
2023-01-09T07:36:30.817Z,17.11
2023-01-09T07:41:33.039Z,17.55
2023-01-09T07:46:31.326Z,18.03
2023-01-09T07:51:29.501Z,18.37
2023-01-09T07:56:29.694Z,18.75
2023-01-09T08:01:28.925Z,18.50
2023-01-09T08:06:26.123Z,18.35
2023-01-09T08:11:27.321Z,18.69
2023-01-09T08:16:25.501Z,18.35
2023-01-09T08:21:24.686Z,18.98
2023-01-09T08:26:22.977Z,20.88
2023-01-09T08:31:23.242Z,20.18
2023-01-09T08:36:22.511Z,20.94
2023-01-09T08:41:20.716Z,21.12
2023-01-09T08:46:21.097Z,24.65
2023-01-09T08:51:21.151Z,24.39
2023-01-09T08:56:20.325Z,22.79
2023-01-09T09:01:18.547Z,23.60
2023-01-09T09:06:19.735Z,24.60
2023-01-09T09:11:16.959Z,24.47
2023-01-09T09:16:17.192Z,26.07
2023-01-09T09:21:16.467Z,25.28
2023-01-09T09:26:15.697Z,25.54
2023-01-09T09:31:13.958Z,24.08
2023-01-09T09:36:14.293Z,23.70
2023-01-09T09:41:13.550Z,22.97
2023-01-09T09:46:12.797Z,22.77
2023-01-09T09:51:10.995Z,22.43
2023-01-09T09:56:11.247Z,22.90
2023-01-09T10:01:11.426Z,22.72
2023-01-09T10:06:09.602Z,25.55
2023-01-09T10:11:07.797Z,25.14
2023-01-09T10:16:07.051Z,23.91
2023-01-09T10:21:06.227Z,24.65
2023-01-09T10:26:05.435Z,25.18
2023-01-09T10:31:04.658Z,26.17
2023-01-09T10:36:04.834Z,26.58
2023-01-09T10:41:02.992Z,27.82
2023-01-09T10:46:01.169Z,26.48
2023-01-09T10:51:00.476Z,28.48
2023-01-09T10:56:00.811Z,27.51
2023-01-09T11:00:59.874Z,25.99
2023-01-09T11:06:01.052Z,26.25
2023-01-09T11:10:58.236Z,25.79
2023-01-09T11:15:57.467Z,25.43
2023-01-09T11:20:57.652Z,25.03
2023-01-09T11:25:56.855Z,24.52
2023-01-09T11:30:57.061Z,24.50
2023-01-09T11:35:55.324Z,24.30
2023-01-09T11:40:53.545Z,24.53
2023-01-09T11:46:00.471Z,25.77
2023-01-09T11:50:53.018Z,25.99
2023-01-09T11:55:51.232Z,25.92
2023-01-09T12:00:51.431Z,25.21
2023-01-09T12:05:50.673Z,26.58
2023-01-09T12:10:48.867Z,28.21
2023-01-09T12:15:48.045Z,26.82
2023-01-09T12:20:48.236Z,27.47
2023-01-09T12:25:46.426Z,26.81
2023-01-09T12:30:46.608Z,26.43
2023-01-09T12:35:44.816Z,25.99
2023-01-09T12:40:43.087Z,26.65
2023-01-09T12:45:43.434Z,25.65
2023-01-09T12:50:43.677Z,25.23
2023-01-09T12:55:41.915Z,24.73
2023-01-09T13:00:41.269Z,24.67
2023-01-09T13:05:41.247Z,24.25
2023-01-09T13:10:39.503Z,23.84
2023-01-09T13:15:39.697Z,24.16
2023-01-09T13:20:37.871Z,24.93
2023-01-09T13:25:38.059Z,25.05
2023-01-09T13:30:37.208Z,25.57
2023-01-09T13:35:35.375Z,26.28
2023-01-09T13:40:35.605Z,26.91
2023-01-09T13:45:34.772Z,26.80
2023-01-09T13:50:32.923Z,26.18
2023-01-09T13:55:33.096Z,25.02
2023-01-09T14:00:31.250Z,25.15
2023-01-09T14:05:31.439Z,26.05
2023-01-09T14:10:30.619Z,25.62
2023-01-09T14:15:27.829Z,25.17
2023-01-09T14:20:29.032Z,24.83
2023-01-09T14:25:28.192Z,24.24
2023-01-09T14:30:26.402Z,26.80
2023-01-09T14:35:26.578Z,28.92
2023-01-09T14:40:26.757Z,28.96
2023-01-09T14:45:23.963Z,29.09
2023-01-09T14:50:22.170Z,29.39
2023-01-09T14:55:23.422Z,29.42
2023-01-09T15:00:21.595Z,29.65
2023-01-09T15:05:20.757Z,29.63
2023-01-09T15:10:21.991Z,29.97
2023-01-09T15:15:20.184Z,30.22
2023-01-09T15:20:19.353Z,30.24
2023-01-09T15:25:20.778Z,30.39
2023-01-09T15:30:16.782Z,30.17
2023-01-09T15:35:15.970Z,30.00
2023-01-09T15:40:15.146Z,29.98
2023-01-09T15:45:17.313Z,30.10
2023-01-09T15:50:13.465Z,30.07
2023-01-09T15:55:12.640Z,30.20
2023-01-09T16:00:12.801Z,30.11
2023-01-09T16:05:10.960Z,30.34
2023-01-09T16:10:11.146Z,30.35
2023-01-09T16:15:09.332Z,30.83
2023-01-09T16:20:09.511Z,30.73
2023-01-09T16:25:07.694Z,30.79
2023-01-09T16:30:07.896Z,30.75
2023-01-09T16:35:06.370Z,30.95
2023-01-09T16:40:04.294Z,30.42
2023-01-09T16:45:06.512Z,30.62
2023-01-09T16:50:03.734Z,31.02
2023-01-09T16:55:02.918Z,30.97
2023-01-09T17:00:02.112Z,31.20
2023-01-09T17:05:01.337Z,31.06
2023-01-09T17:10:00.577Z,31.07
2023-01-09T17:14:59.755Z,31.10
2023-01-09T17:19:58.979Z,31.14
2023-01-09T17:25:00.157Z,31.29
2023-01-09T17:29:59.322Z,31.31
2023-01-09T17:34:57.598Z,31.47
2023-01-09T17:39:56.792Z,31.34
2023-01-09T17:44:55.963Z,31.32
2023-01-09T17:49:55.147Z,28.98
2023-01-09T17:54:53.325Z,28.07
2023-01-09T17:59:54.519Z,27.75
2023-01-09T18:04:51.770Z,27.22
2023-01-09T18:09:50.999Z,26.97
2023-01-09T18:14:50.375Z,26.70
2023-01-09T18:19:49.483Z,26.88
2023-01-09T18:24:49.901Z,26.92
2023-01-09T18:29:49.187Z,27.57
2023-01-09T18:34:49.138Z,26.97
2023-01-09T18:39:46.699Z,26.72
2023-01-09T18:44:45.607Z,27.75
2023-01-09T18:49:45.858Z,27.51
2023-01-09T18:54:44.049Z,27.18
2023-01-09T18:59:43.239Z,26.92
2023-01-09T19:04:43.783Z,26.51
2023-01-09T19:09:41.629Z,26.58
2023-01-09T19:14:43.121Z,26.45
2023-01-09T19:19:40.268Z,27.85
2023-01-09T19:24:40.322Z,27.28
2023-01-09T19:29:39.513Z,27.60
2023-01-09T19:34:38.018Z,27.19
2023-01-09T19:39:37.945Z,27.12
2023-01-09T19:44:37.121Z,27.25
2023-01-09T19:49:34.323Z,27.46
2023-01-09T19:54:36.520Z,26.80
2023-01-09T19:59:36.221Z,27.59
2023-01-09T20:04:33.280Z,26.32
2023-01-09T20:09:34.348Z,25.55
2023-01-09T20:14:30.609Z,26.52
2023-01-09T20:19:30.883Z,26.25
2023-01-09T20:24:30.079Z,27.07
2023-01-09T20:29:29.291Z,28.76
2023-01-09T20:34:31.488Z,28.04
2023-01-09T20:39:27.749Z,29.89
2023-01-09T20:44:27.960Z,29.14
2023-01-09T20:49:27.368Z,28.39
2023-01-09T20:54:26.367Z,27.24
2023-01-09T20:59:25.663Z,26.82
2023-01-09T21:04:23.916Z,26.62
2023-01-09T21:09:23.047Z,26.05
2023-01-09T21:14:23.233Z,25.91
2023-01-09T21:19:22.914Z,28.81
2023-01-09T21:24:21.691Z,26.58
2023-01-09T21:29:19.859Z,26.54
2023-01-09T21:34:20.031Z,26.37
2023-01-09T21:39:18.201Z,28.04
2023-01-09T21:44:18.355Z,28.46
2023-01-09T21:49:16.536Z,27.81
2023-01-09T21:54:15.725Z,28.25
2023-01-09T21:59:15.899Z,29.85
2023-01-09T22:04:14.110Z,29.19
2023-01-09T22:09:14.338Z,29.53
2023-01-09T22:14:13.529Z,29.12
2023-01-09T22:19:11.729Z,29.63
2023-01-09T22:24:11.937Z,28.62
2023-01-09T22:29:10.101Z,28.71
2023-01-09T22:34:08.342Z,27.97
2023-01-09T22:39:10.484Z,27.49
2023-01-09T22:44:08.654Z,26.94
2023-01-09T22:49:06.849Z,26.65
2023-01-09T22:54:06.036Z,25.98
2023-01-09T22:59:05.200Z,24.53
2023-01-09T23:04:04.366Z,24.90
2023-01-09T23:09:03.545Z,24.18
2023-01-09T23:14:03.731Z,23.69
2023-01-09T23:19:01.896Z,22.64
2023-01-09T23:24:02.094Z,22.27
2023-01-09T23:29:01.283Z,22.06
2023-01-09T23:33:59.471Z,21.86
2023-01-09T23:38:58.719Z,21.54
2023-01-09T23:43:57.899Z,21.32
2023-01-09T23:48:57.119Z,21.03
2023-01-09T23:53:56.316Z,20.42
2023-01-09T23:58:55.524Z,20.36
